createdAt,value
2023-04-04T00:00:35.911Z,2.03
2023-04-04T00:03:02.924Z,1.63
2023-04-04T00:05:29.871Z,2.33
2023-04-04T00:07:56.697Z,1.93
2023-04-04T00:10:23.588Z,2.17
2023-04-04T00:12:50.307Z,1.87
2023-04-04T00:15:19.358Z,1.70
2023-04-04T00:17:46.100Z,1.93
2023-04-04T00:20:15.238Z,2.07
2023-04-04T00:22:42.406Z,1.67
2023-04-04T00:28:50.634Z,2.10
2023-04-04T00:31:18.091Z,2.20
2023-04-04T00:33:44.697Z,2.53
2023-04-04T00:36:11.705Z,2.23
2023-04-04T00:38:38.381Z,2.50
2023-04-04T00:41:07.684Z,2.37
2023-04-04T00:43:35.408Z,2.33
2023-04-04T00:46:02.414Z,2.10
2023-04-04T00:48:29.880Z,1.90
2023-04-04T00:50:56.984Z,2.00
2023-04-04T00:53:23.752Z,2.23
2023-04-04T00:55:50.639Z,2.13
2023-04-04T00:58:19.905Z,2.40
2023-04-04T01:00:47.031Z,2.40
2023-04-04T01:03:14.391Z,2.40
2023-04-04T01:05:41.942Z,2.47
2023-04-04T01:08:08.801Z,2.50
2023-04-04T01:10:35.791Z,2.10
2023-04-04T01:13:04.878Z,2.50
2023-04-04T01:15:31.628Z,2.17
2023-04-04T01:18:02.406Z,2.23
2023-04-04T01:20:32.951Z,2.17
2023-04-04T01:23:01.999Z,2.10
2023-04-04T01:25:34.887Z,2.23
2023-04-04T01:28:01.738Z,2.40
2023-04-04T01:30:35.010Z,2.40
2023-04-04T01:33:11.000Z,2.67
2023-04-04T01:35:51.738Z,2.53
2023-04-04T01:38:58.655Z,2.30
2023-04-04T01:41:26.323Z,2.60
2023-04-04T01:43:56.196Z,2.13
2023-04-04T01:46:25.620Z,2.33
2023-04-04T01:48:55.294Z,2.63
2023-04-04T01:51:24.722Z,2.27
2023-04-04T01:53:51.394Z,2.30
2023-04-04T01:56:18.532Z,2.23
2023-04-04T01:58:45.229Z,2.57
2023-04-04T02:01:11.929Z,2.53
2023-04-04T02:03:38.676Z,2.40
2023-04-04T02:06:05.942Z,2.37
2023-04-04T02:08:32.541Z,2.23
2023-04-04T02:10:59.397Z,2.40
2023-04-04T02:13:26.177Z,3.03
2023-04-04T02:15:56.116Z,2.60
2023-04-04T02:18:26.060Z,2.43
2023-04-04T02:20:57.659Z,2.30
2023-04-04T02:23:24.657Z,2.17
2023-04-04T02:25:52.010Z,2.70
2023-04-04T02:28:19.326Z,2.37
2023-04-04T02:30:46.175Z,2.13
2023-04-04T02:33:12.980Z,1.80
2023-04-04T02:35:39.742Z,2.17
2023-04-04T02:38:06.721Z,2.30
2023-04-04T02:40:33.293Z,2.30
2023-04-04T02:42:59.955Z,2.47
2023-04-04T02:45:26.754Z,2.40
2023-04-04T02:47:53.551Z,2.47
2023-04-04T02:50:20.312Z,2.20
2023-04-04T02:52:47.051Z,3.23
2023-04-04T02:55:13.821Z,3.00
2023-04-04T02:57:40.770Z,2.47
2023-04-04T03:00:08.237Z,2.87
2023-04-04T03:02:35.205Z,2.40
2023-04-04T03:05:07.084Z,2.47
2023-04-04T03:07:38.409Z,2.70
2023-04-04T03:10:07.695Z,2.70
2023-04-04T03:12:34.428Z,2.43
2023-04-04T03:15:04.743Z,2.93
2023-04-04T03:17:31.922Z,2.90
2023-04-04T03:19:58.626Z,2.70
2023-04-04T03:22:25.371Z,2.60
2023-04-04T03:24:54.448Z,3.00
2023-04-04T03:27:23.253Z,3.50
2023-04-04T03:29:53.012Z,2.93
2023-04-04T03:32:19.640Z,2.57
2023-04-04T03:34:48.599Z,2.73
2023-04-04T03:37:15.179Z,2.97
2023-04-04T03:39:44.061Z,3.10
2023-04-04T03:42:11.110Z,2.70
2023-04-04T03:44:41.784Z,2.80
2023-04-04T03:47:08.645Z,3.03
2023-04-04T03:49:35.367Z,3.33
2023-04-04T03:52:04.973Z,2.80
2023-04-04T03:54:31.584Z,2.73
2023-04-04T03:56:58.520Z,2.90
2023-04-04T03:59:25.608Z,3.30
2023-04-04T04:01:52.672Z,3.60
2023-04-04T04:04:19.424Z,3.17
2023-04-04T04:06:49.034Z,3.07
2023-04-04T04:09:16.071Z,3.47
2023-04-04T04:11:43.056Z,2.87
2023-04-04T04:14:09.649Z,3.50
2023-04-04T04:16:40.299Z,3.10
2023-04-04T04:19:07.100Z,3.60
2023-04-04T04:21:33.774Z,3.73
2023-04-04T04:24:00.491Z,3.60
2023-04-04T04:26:27.343Z,3.47
2023-04-04T04:28:54.240Z,3.87
2023-04-04T04:31:23.377Z,3.83
2023-04-04T04:33:52.673Z,3.83
2023-04-04T04:36:19.408Z,3.77
2023-04-04T04:38:50.916Z,4.00
2023-04-04T04:41:17.667Z,3.93
2023-04-04T04:43:44.368Z,4.13
2023-04-04T04:46:11.331Z,4.27
2023-04-04T04:48:37.996Z,3.87
2023-04-04T04:51:06.892Z,3.70
2023-04-04T04:53:33.665Z,4.10
2023-04-04T04:56:00.398Z,3.87
2023-04-04T04:58:28.630Z,4.10
2023-04-04T05:00:59.673Z,4.20
2023-04-04T05:03:26.526Z,3.70
2023-04-04T05:05:53.483Z,4.07
2023-04-04T05:08:20.166Z,4.03
2023-04-04T05:10:49.042Z,4.27
2023-04-04T05:13:15.704Z,4.40
2023-04-04T05:15:48.761Z,3.83
2023-04-04T05:18:25.030Z,3.67
2023-04-04T05:20:56.563Z,4.43
2023-04-04T05:23:26.555Z,4.10
2023-04-04T05:25:55.844Z,3.97
2023-04-04T05:28:23.782Z,4.20
2023-04-04T05:30:50.518Z,4.10
2023-04-04T05:33:17.369Z,4.23
2023-04-04T05:35:51.989Z,3.77
2023-04-04T05:38:23.265Z,3.83
2023-04-04T05:40:49.928Z,4.17
2023-04-04T05:43:17.969Z,4.10
2023-04-04T05:45:44.853Z,4.27
2023-04-04T05:48:11.943Z,4.93
2023-04-04T05:50:42.344Z,3.83
2023-04-04T05:53:13.045Z,3.70
2023-04-04T05:55:39.774Z,4.17
2023-04-04T05:58:07.341Z,4.07
2023-04-04T06:00:35.466Z,3.73
2023-04-04T06:03:04.445Z,4.23
2023-04-04T06:05:32.060Z,4.60
2023-04-04T06:08:02.118Z,4.00
2023-04-04T06:10:43.455Z,4.40
2023-04-04T06:13:19.503Z,4.53
2023-04-04T06:16:03.076Z,4.00
2023-04-04T06:18:38.712Z,3.73
2023-04-04T06:21:11.342Z,3.30
2023-04-04T06:23:47.255Z,3.63
2023-04-04T06:26:17.024Z,4.57
2023-04-04T06:28:52.021Z,4.13
2023-04-04T06:31:18.934Z,4.27
2023-04-04T06:33:48.976Z,4.67
2023-04-04T06:36:16.500Z,4.13
2023-04-04T06:38:43.346Z,4.03
2023-04-04T06:41:12.476Z,4.63
2023-04-04T06:43:41.812Z,4.53
2023-04-04T06:46:09.427Z,4.60
2023-04-04T06:48:36.671Z,4.23
2023-04-04T06:51:09.128Z,4.77
2023-04-04T06:53:36.875Z,4.67
2023-04-04T06:56:06.232Z,4.33
2023-04-04T06:58:35.869Z,4.25
2023-04-04T07:01:02.639Z,4.30
2023-04-04T07:03:30.169Z,4.45
2023-04-04T07:05:57.219Z,3.92
2023-04-04T07:08:24.308Z,3.78
2023-04-04T07:10:51.610Z,3.92
2023-04-04T07:13:20.616Z,3.58
2023-04-04T07:15:50.682Z,3.47
2023-04-04T07:18:19.587Z,3.75
2023-04-04T07:20:54.528Z,3.10
2023-04-04T07:23:21.272Z,3.20
2023-04-04T07:25:50.356Z,3.30
2023-04-04T07:28:17.343Z,3.65
2023-04-04T07:30:46.176Z,3.15
2023-04-04T07:33:13.447Z,3.40
2023-04-04T07:35:43.002Z,3.70
2023-04-04T07:38:10.342Z,3.83
2023-04-04T07:40:39.670Z,3.28
2023-04-04T07:43:06.780Z,3.08
2023-04-04T07:45:38.663Z,3.20
2023-04-04T07:48:05.686Z,3.22
2023-04-04T07:50:32.369Z,3.35
2023-04-04T07:53:03.902Z,3.42
2023-04-04T07:55:30.600Z,3.15
2023-04-04T07:57:58.478Z,3.22
2023-04-04T08:00:26.596Z,3.25
2023-04-04T08:02:54.545Z,2.90
2023-04-04T08:05:21.667Z,3.80
2023-04-04T08:07:50.532Z,3.08
2023-04-04T08:10:17.905Z,2.83
2023-04-04T08:12:45.258Z,2.90
2023-04-04T08:15:12.314Z,2.55
2023-04-04T08:17:39.265Z,2.53
2023-04-04T08:20:06.522Z,2.67
2023-04-04T08:22:33.815Z,2.50
2023-04-04T08:25:00.872Z,2.45
2023-04-04T08:27:29.962Z,2.35
2023-04-04T08:29:58.787Z,2.25
2023-04-04T08:32:25.376Z,2.10
2023-04-04T08:34:52.158Z,1.92
2023-04-04T08:37:21.257Z,2.10
2023-04-04T08:39:47.866Z,1.98
2023-04-04T08:42:17.624Z,2.50
2023-04-04T08:44:50.820Z,2.22
2023-04-04T08:47:21.442Z,2.17
2023-04-04T08:49:49.783Z,1.63
2023-04-04T08:52:21.870Z,2.10
2023-04-04T08:54:52.676Z,1.60
2023-04-04T08:57:22.289Z,1.88
2023-04-04T08:59:49.346Z,1.77
2023-04-04T09:02:38.548Z,2.03
2023-04-04T09:05:08.796Z,1.60
2023-04-04T09:07:38.538Z,1.55
2023-04-04T09:10:09.378Z,1.98
2023-04-04T09:12:39.493Z,1.88
2023-04-04T09:15:09.993Z,1.50
2023-04-04T09:17:37.558Z,1.50
2023-04-04T09:20:24.521Z,1.30
2023-04-04T09:22:51.512Z,2.10
2023-04-04T09:25:18.694Z,1.63
2023-04-04T09:27:45.791Z,1.77
2023-04-04T09:30:12.510Z,1.70
2023-04-04T09:32:39.153Z,1.55
2023-04-04T09:35:06.463Z,1.80
2023-04-04T09:37:33.453Z,1.58
2023-04-04T09:40:01.546Z,1.92
2023-04-04T09:45:13.238Z,1.58
2023-04-04T09:47:49.709Z,1.63
2023-04-04T09:50:23.597Z,1.83
2023-04-04T09:52:50.972Z,1.40
2023-04-04T09:55:20.045Z,1.90
2023-04-04T09:57:47.562Z,1.50
2023-04-04T10:00:23.177Z,1.80
2023-04-04T10:02:53.317Z,1.83
2023-04-04T10:05:20.747Z,1.70
2023-04-04T10:07:49.015Z,1.92
2023-04-04T10:10:18.243Z,1.83
2023-04-04T10:12:48.171Z,1.58
2023-04-04T10:15:16.451Z,2.20
2023-04-04T10:17:44.279Z,1.90
2023-04-04T10:20:11.485Z,2.10
2023-04-04T10:22:38.911Z,2.10
2023-04-04T10:25:07.302Z,2.40
2023-04-04T10:27:34.478Z,1.67
2023-04-04T10:30:01.721Z,2.03
2023-04-04T10:32:51.621Z,2.20
2023-04-04T10:35:22.772Z,2.13
2023-04-04T10:38:02.024Z,1.80
2023-04-04T10:40:39.020Z,2.10
2023-04-04T10:43:09.747Z,2.10
2023-04-04T10:45:40.235Z,1.92
2023-04-04T10:48:10.514Z,1.85
2023-04-04T10:50:39.393Z,1.50
2023-04-04T10:53:07.577Z,1.58
2023-04-04T10:55:35.590Z,2.15
2023-04-04T10:58:04.924Z,2.10
2023-04-04T11:00:31.624Z,2.00
2023-04-04T11:03:02.055Z,1.50
2023-04-04T11:05:47.483Z,1.80
2023-04-04T11:08:25.409Z,2.05
2023-04-04T11:10:53.998Z,1.88
2023-04-04T11:13:26.224Z,2.00
2023-04-04T11:16:08.158Z,1.80
2023-04-04T11:18:41.778Z,2.15
2023-04-04T11:21:19.932Z,1.88
2023-04-04T11:23:49.847Z,1.67
2023-04-04T11:26:37.508Z,1.30
2023-04-04T11:29:05.392Z,1.63
2023-04-04T11:31:40.739Z,1.45
2023-04-04T11:34:14.113Z,1.90
2023-04-04T11:36:41.493Z,1.80
2023-04-04T11:39:10.982Z,1.88
2023-04-04T11:41:52.770Z,1.92
2023-04-04T11:44:22.470Z,2.10
2023-04-04T11:46:54.787Z,1.85
2023-04-04T11:49:27.570Z,1.67
2023-04-04T11:51:54.437Z,2.15
2023-04-04T11:54:21.147Z,1.88
2023-04-04T11:56:48.213Z,2.10
2023-04-04T11:59:20.072Z,2.45
2023-04-04T13:31:29.569Z,3.50
2023-04-04T13:33:56.130Z,3.00
2023-04-04T13:36:22.701Z,3.47
2023-04-04T13:38:49.404Z,2.65
2023-04-04T13:41:16.034Z,2.90
2023-04-04T13:43:42.587Z,3.20
2023-04-04T13:46:09.590Z,2.97
2023-04-04T13:48:36.248Z,3.25
2023-04-04T13:51:02.858Z,2.92
2023-04-04T13:53:34.004Z,2.83
2023-04-04T13:56:17.964Z,3.20
2023-04-04T13:58:48.273Z,3.50
2023-04-04T14:01:17.465Z,3.17
2023-04-04T14:03:44.180Z,3.45
2023-04-04T14:06:12.969Z,2.63
2023-04-04T14:08:41.849Z,3.30
2023-04-04T14:11:08.501Z,3.28
2023-04-04T14:13:36.406Z,3.00
2023-04-04T14:16:03.316Z,3.30
2023-04-04T14:18:29.924Z,3.78
2023-04-04T14:20:56.868Z,3.10
2023-04-04T14:23:25.910Z,3.47
2023-04-04T14:25:52.725Z,3.55
2023-04-04T14:28:24.727Z,3.13
2023-04-04T14:30:51.635Z,2.97
2023-04-04T14:33:18.420Z,2.95
2023-04-04T14:35:45.095Z,2.92
2023-04-04T14:38:13.910Z,2.97
2023-04-04T14:40:45.361Z,2.75
2023-04-04T14:43:11.985Z,2.40
2023-04-04T14:45:38.890Z,3.00
2023-04-04T14:48:05.846Z,3.17
2023-04-04T14:50:32.412Z,3.00
2023-04-04T14:52:59.055Z,2.90
2023-04-04T14:55:28.090Z,2.75
2023-04-04T14:58:01.960Z,2.88
2023-04-04T15:00:29.828Z,3.10
2023-04-04T15:02:56.575Z,3.20
2023-04-04T15:05:24.954Z,3.88
2023-04-04T15:07:51.554Z,3.30
2023-04-04T15:10:18.188Z,3.05
2023-04-04T15:12:44.795Z,2.80
2023-04-04T15:15:13.240Z,3.33
2023-04-04T15:17:44.902Z,2.97
2023-04-04T15:20:12.067Z,2.90
2023-04-04T15:22:39.857Z,3.03
2023-04-04T15:25:08.414Z,3.15
2023-04-04T15:27:35.433Z,3.17
2023-04-04T15:30:02.144Z,3.45
2023-04-04T15:32:28.836Z,2.80
2023-04-04T15:34:58.523Z,2.85
2023-04-04T15:37:25.996Z,3.15
2023-04-04T15:39:53.880Z,3.53
2023-04-04T15:42:21.340Z,2.90
2023-04-04T15:44:47.980Z,3.00
2023-04-04T15:47:16.796Z,3.10
2023-04-04T15:49:43.512Z,3.70
2023-04-04T15:52:12.418Z,3.15
2023-04-04T15:54:41.529Z,3.17
2023-04-04T15:57:08.228Z,3.40
2023-04-04T15:59:34.952Z,2.72
2023-04-04T16:02:04.761Z,3.22
2023-04-04T16:04:31.335Z,3.45
2023-04-04T16:06:57.890Z,3.25
2023-04-04T16:09:24.889Z,3.70
2023-04-04T16:11:51.757Z,3.53
2023-04-04T16:14:18.493Z,3.38
2023-04-04T16:16:45.095Z,3.47
2023-04-04T16:21:41.855Z,3.45
2023-04-04T16:24:08.906Z,3.80
2023-04-04T16:26:35.880Z,3.28
2023-04-04T16:29:05.818Z,3.35
2023-04-04T16:31:34.971Z,3.38
2023-04-04T16:34:03.902Z,3.25
2023-04-04T16:36:31.044Z,3.35
2023-04-04T16:39:02.615Z,3.00
2023-04-04T16:41:29.347Z,3.35
2023-04-04T16:43:56.014Z,3.33
2023-04-04T16:46:22.623Z,3.40
2023-04-04T16:48:51.686Z,3.40
2023-04-04T16:51:18.278Z,3.70
2023-04-04T16:53:47.084Z,3.40
2023-04-04T16:56:13.653Z,3.35
2023-04-04T16:58:40.571Z,3.03
2023-04-04T17:01:12.321Z,3.08
2023-04-04T17:03:38.946Z,3.50
2023-04-04T17:06:06.643Z,2.72
2023-04-04T17:08:33.246Z,3.55
2023-04-04T17:10:59.967Z,2.88
2023-04-04T17:13:29.294Z,2.83
2023-04-04T17:16:01.043Z,3.42
2023-04-04T17:18:27.705Z,3.92
2023-04-04T17:20:54.322Z,3.60
2023-04-04T17:23:20.966Z,3.17
2023-04-04T17:25:47.556Z,3.65
2023-04-04T17:28:14.099Z,3.95
2023-04-04T17:30:41.501Z,3.53
2023-04-04T17:33:23.668Z,3.08
2023-04-04T17:35:50.377Z,3.72
2023-04-04T17:38:16.907Z,3.90
2023-04-04T17:40:46.634Z,4.18
2023-04-04T17:43:13.257Z,4.20
2023-04-04T17:45:39.818Z,4.47
2023-04-04T17:48:06.665Z,4.80
2023-04-04T17:50:33.215Z,4.50
2023-04-04T17:53:02.169Z,4.93
2023-04-04T17:55:29.191Z,4.70
2023-04-04T17:57:57.194Z,4.95
2023-04-04T18:00:24.138Z,5.32
2023-04-04T18:02:50.851Z,6.38
2023-04-04T18:05:17.995Z,7.90
2023-04-04T18:07:44.651Z,6.97
2023-04-04T18:10:11.543Z,5.63
2023-04-04T18:12:39.204Z,5.20
2023-04-04T18:15:08.582Z,5.95
2023-04-04T18:17:35.351Z,4.75
2023-04-04T18:20:05.520Z,4.63
2023-04-04T18:22:33.396Z,6.15
2023-04-04T18:25:02.567Z,6.63
2023-04-04T18:27:29.129Z,5.75
2023-04-04T18:29:55.771Z,6.75
2023-04-04T18:32:26.417Z,6.68
2023-04-04T18:34:55.817Z,5.95
2023-04-04T18:37:22.406Z,5.57
2023-04-04T18:39:49.000Z,5.65
2023-04-04T18:42:15.687Z,5.97
2023-04-04T18:44:42.323Z,5.78
2023-04-04T18:47:09.121Z,7.45
2023-04-04T18:49:36.439Z,7.28
2023-04-04T18:52:03.156Z,7.10
2023-04-04T18:54:30.318Z,6.35
2023-04-04T18:57:00.711Z,6.20
2023-04-04T18:59:27.398Z,6.70
2023-04-04T19:01:54.278Z,5.93
2023-04-04T19:04:24.163Z,4.65
2023-04-04T19:06:53.978Z,4.60
2023-04-04T19:09:21.266Z,4.10
2023-04-04T19:11:52.727Z,5.35
2023-04-04T19:14:19.592Z,3.97
2023-04-04T19:16:48.444Z,4.32
2023-04-04T19:19:15.024Z,5.00
2023-04-04T19:21:42.289Z,4.32
2023-04-04T19:24:08.940Z,4.78
2023-04-04T19:26:35.544Z,4.30
2023-04-04T19:29:04.347Z,5.63
2023-04-04T19:31:36.034Z,5.05
2023-04-04T19:34:03.790Z,7.03
2023-04-04T19:36:35.906Z,7.80
2023-04-04T19:39:02.648Z,7.88
2023-04-04T19:41:36.614Z,6.63
2023-04-04T19:44:04.276Z,6.93
2023-04-04T19:46:34.785Z,6.43
2023-04-04T19:49:03.794Z,5.70
2023-04-04T19:51:38.620Z,5.25
2023-04-04T19:54:09.325Z,5.05
2023-04-04T19:56:36.326Z,5.00
2023-04-04T19:59:06.205Z,5.53
2023-04-04T20:01:34.914Z,4.95
2023-04-04T20:04:09.638Z,5.30
2023-04-04T20:06:38.362Z,4.75
2023-04-04T20:09:13.148Z,6.07
2023-04-04T20:11:39.909Z,5.47
2023-04-04T20:14:08.337Z,5.32
2023-04-04T20:16:35.806Z,6.17
2023-04-04T20:19:12.439Z,5.22
2023-04-04T20:21:41.840Z,4.95
2023-04-04T20:24:09.368Z,5.10
2023-04-04T20:26:38.832Z,5.78
2023-04-04T20:29:16.056Z,8.52
2023-04-04T20:31:52.576Z,7.00
2023-04-04T20:34:33.496Z,6.80
2023-04-04T20:37:03.416Z,6.82
2023-04-04T20:39:46.799Z,7.15
2023-04-04T20:42:31.260Z,13.25
2023-04-04T20:45:01.059Z,14.38
2023-04-04T20:47:51.130Z,13.80
2023-04-04T20:50:17.965Z,12.27
2023-04-04T20:52:59.931Z,7.68
2023-04-04T20:55:30.731Z,8.23
2023-04-04T20:58:06.141Z,8.85
2023-04-04T21:00:33.656Z,8.95
2023-04-04T21:03:02.539Z,9.43
2023-04-04T21:05:34.161Z,10.32
2023-04-04T21:08:04.621Z,8.60
2023-04-04T21:10:37.298Z,6.78
2023-04-04T21:13:05.651Z,7.55
2023-04-04T21:15:38.779Z,9.20
2023-04-04T21:18:12.151Z,7.40
2023-04-04T21:20:48.018Z,6.30
2023-04-04T21:23:30.711Z,6.43
2023-04-04T21:26:02.653Z,6.30
2023-04-04T21:28:38.859Z,5.57
2023-04-04T21:31:16.235Z,6.45
2023-04-04T21:33:47.903Z,5.68
2023-04-04T21:36:23.832Z,5.93
2023-04-04T21:38:52.407Z,6.50
2023-04-04T21:41:32.642Z,6.68
2023-04-04T21:44:01.977Z,6.35
2023-04-04T21:46:33.396Z,6.00
2023-04-04T21:49:02.862Z,7.00
2023-04-04T21:51:29.678Z,6.50
2023-04-04T21:53:57.032Z,5.82
2023-04-04T21:56:27.565Z,5.82
2023-04-04T21:58:57.276Z,5.60
2023-04-04T22:01:27.262Z,6.47
2023-04-04T22:03:56.396Z,6.13
2023-04-04T22:06:25.401Z,6.10
2023-04-04T22:08:54.570Z,5.85
2023-04-04T22:11:21.177Z,6.50
2023-04-04T22:13:49.252Z,5.95
2023-04-04T22:16:19.720Z,5.80
2023-04-04T22:18:48.226Z,6.83
2023-04-04T22:21:16.243Z,7.10
2023-04-04T22:23:43.012Z,6.80
2023-04-04T22:26:13.956Z,6.25
2023-04-04T22:28:42.171Z,6.40
2023-04-04T22:31:09.383Z,5.55
2023-04-04T22:33:35.951Z,6.47
2023-04-04T22:36:03.584Z,7.03
2023-04-04T22:38:30.376Z,6.17
2023-04-04T22:41:00.186Z,6.97
2023-04-04T22:43:29.173Z,6.80
2023-04-04T22:45:56.018Z,6.50
2023-04-04T22:48:25.538Z,6.93
2023-04-04T22:50:55.810Z,6.67
2023-04-04T22:53:26.701Z,7.07
2023-04-04T22:55:59.856Z,7.50
2023-04-04T22:58:26.723Z,6.87
2023-04-04T23:00:56.061Z,6.37
2023-04-04T23:03:22.843Z,6.47
2023-04-04T23:05:55.456Z,6.70
2023-04-04T23:08:24.499Z,6.93
2023-04-04T23:10:53.742Z,6.97
2023-04-04T23:13:20.838Z,6.90
2023-04-04T23:15:47.608Z,7.90
2023-04-04T23:18:14.442Z,7.20
2023-04-04T23:20:44.807Z,7.23
2023-04-04T23:23:13.937Z,7.47
2023-04-04T23:25:40.609Z,6.47
2023-04-04T23:28:09.940Z,6.47
2023-04-04T23:30:36.905Z,6.30
2023-04-04T23:33:03.947Z,7.00
2023-04-04T23:35:33.178Z,6.77
2023-04-04T23:38:02.341Z,6.80
2023-04-04T23:40:29.042Z,7.07
2023-04-04T23:42:55.898Z,6.97
2023-04-04T23:45:26.307Z,7.53
2023-04-04T23:47:53.728Z,6.87
2023-04-04T23:50:20.541Z,7.13
2023-04-04T23:52:49.440Z,7.03
2023-04-04T23:55:17.193Z,7.80
2023-04-04T23:57:47.124Z,7.20
